sensor_id;sensor_type;location;lat;lon;timestamp;temperature;humidity
22714;DHT22;11524;50.846;4.326;2022-11-25T00:01:16;18.10;67.20
22714;DHT22;11524;50.846;4.326;2022-11-25T00:03:43;18.20;67.20
22714;DHT22;11524;50.846;4.326;2022-11-25T00:06:10;18.20;67.80
22714;DHT22;11524;50.846;4.326;2022-11-25T00:08:36;18.20;67.10
22714;DHT22;11524;50.846;4.326;2022-11-25T00:11:03;18.20;66.70
22714;DHT22;11524;50.846;4.326;2022-11-25T00:13:29;18.20;67.20
22714;DHT22;11524;50.846;4.326;2022-11-25T00:15:55;18.20;67.30
22714;DHT22;11524;50.846;4.326;2022-11-25T00:18:21;18.20;67.00
22714;DHT22;11524;50.846;4.326;2022-11-25T00:20:46;18.20;66.80
22714;DHT22;11524;50.846;4.326;2022-11-25T00:23:12;18.20;66.80
22714;DHT22;11524;50.846;4.326;2022-11-25T00:25:37;18.20;67.10
22714;DHT22;11524;50.846;4.326;2022-11-25T00:28:03;18.20;67.30
22714;DHT22;11524;50.846;4.326;2022-11-25T00:30:29;18.20;68.10
22714;DHT22;11524;50.846;4.326;2022-11-25T00:32:54;18.20;68.00
22714;DHT22;11524;50.846;4.326;2022-11-25T00:35:20;18.20;67.70
22714;DHT22;11524;50.846;4.326;2022-11-25T00:37:45;18.20;67.10
22714;DHT22;11524;50.846;4.326;2022-11-25T00:40:11;18.20;68.10
22714;DHT22;11524;50.846;4.326;2022-11-25T00:42:37;18.20;67.20
22714;DHT22;11524;50.846;4.326;2022-11-25T00:45:21;18.20;67.30
22714;DHT22;11524;50.846;4.326;2022-11-25T00:47:47;18.20;67.30
22714;DHT22;11524;50.846;4.326;2022-11-25T00:50:13;18.30;67.40
22714;DHT22;11524;50.846;4.326;2022-11-25T00:52:38;18.20;67.90
22714;DHT22;11524;50.846;4.326;2022-11-25T00:55:04;18.30;67.00
22714;DHT22;11524;50.846;4.326;2022-11-25T00:57:30;18.30;68.20
22714;DHT22;11524;50.846;4.326;2022-11-25T00:59:55;18.20;68.10
22714;DHT22;11524;50.846;4.326;2022-11-25T01:02:21;18.20;67.20
22714;DHT22;11524;50.846;4.326;2022-11-25T01:04:47;18.20;67.00
22714;DHT22;11524;50.846;4.326;2022-11-25T01:07:13;18.20;67.30
22714;DHT22;11524;50.846;4.326;2022-11-25T01:09:38;18.20;67.00
22714;DHT22;11524;50.846;4.326;2022-11-25T01:12:04;18.20;67.10
22714;DHT22;11524;50.846;4.326;2022-11-25T01:14:30;18.20;67.20
22714;DHT22;11524;50.846;4.326;2022-11-25T01:16:56;18.20;67.20
22714;DHT22;11524;50.846;4.326;2022-11-25T01:19:22;18.20;66.90
22714;DHT22;11524;50.846;4.326;2022-11-25T01:21:48;18.20;66.90
22714;DHT22;11524;50.846;4.326;2022-11-25T01:24:14;18.20;67.20
22714;DHT22;11524;50.846;4.326;2022-11-25T01:26:41;18.20;67.60
22714;DHT22;11524;50.846;4.326;2022-11-25T01:29:15;18.20;67.60
22714;DHT22;11524;50.846;4.326;2022-11-25T01:31:41;18.20;67.10
22714;DHT22;11524;50.846;4.326;2022-11-25T01:34:14;18.20;67.20
22714;DHT22;11524;50.846;4.326;2022-11-25T01:36:41;18.20;67.00
22714;DHT22;11524;50.846;4.326;2022-11-25T01:39:07;18.30;67.50
22714;DHT22;11524;50.846;4.326;2022-11-25T01:41:34;18.20;67.30
22714;DHT22;11524;50.846;4.326;2022-11-25T01:44:16;18.20;67.00
22714;DHT22;11524;50.846;4.326;2022-11-25T01:49:45;18.20;65.90
22714;DHT22;11524;50.846;4.326;2022-11-25T01:55:02;18.20;65.60
22714;DHT22;11524;50.846;4.326;2022-11-25T01:57:35;18.20;66.00
22714;DHT22;11524;50.846;4.326;2022-11-25T02:00:04;18.20;66.60
22714;DHT22;11524;50.846;4.326;2022-11-25T02:02:30;18.20;67.10
22714;DHT22;11524;50.846;4.326;2022-11-25T02:04:56;18.20;62.50
22714;DHT22;11524;50.846;4.326;2022-11-25T02:07:30;18.20;62.10
22714;DHT22;11524;50.846;4.326;2022-11-25T02:09:57;18.10;62.00
22714;DHT22;11524;50.846;4.326;2022-11-25T02:12:24;18.10;62.30
22714;DHT22;11524;50.846;4.326;2022-11-25T02:14:51;18.10;62.30
22714;DHT22;11524;50.846;4.326;2022-11-25T02:17:18;18.20;62.30
22714;DHT22;11524;50.846;4.326;2022-11-25T02:19:52;18.10;62.20
22714;DHT22;11524;50.846;4.326;2022-11-25T02:22:28;18.10;62.60
22714;DHT22;11524;50.846;4.326;2022-11-25T02:25:07;18.00;62.10
22714;DHT22;11524;50.846;4.326;2022-11-25T02:27:33;18.10;62.10
22714;DHT22;11524;50.846;4.326;2022-11-25T02:29:58;18.00;62.00
22714;DHT22;11524;50.846;4.326;2022-11-25T02:32:24;18.00;62.30
22714;DHT22;11524;50.846;4.326;2022-11-25T02:34:50;18.00;62.40
22714;DHT22;11524;50.846;4.326;2022-11-25T02:37:20;18.00;62.70
22714;DHT22;11524;50.846;4.326;2022-11-25T02:39:48;18.00;62.10
22714;DHT22;11524;50.846;4.326;2022-11-25T02:42:16;18.00;62.60
22714;DHT22;11524;50.846;4.326;2022-11-25T02:44:42;17.90;62.50
22714;DHT22;11524;50.846;4.326;2022-11-25T02:47:08;17.90;62.50
22714;DHT22;11524;50.846;4.326;2022-11-25T02:49:33;17.90;62.30
22714;DHT22;11524;50.846;4.326;2022-11-25T02:51:59;17.90;62.40
22714;DHT22;11524;50.846;4.326;2022-11-25T02:54:24;17.90;62.30
22714;DHT22;11524;50.846;4.326;2022-11-25T02:56:50;17.90;62.50
22714;DHT22;11524;50.846;4.326;2022-11-25T02:59:16;17.90;62.40
22714;DHT22;11524;50.846;4.326;2022-11-25T03:01:41;17.80;62.50
22714;DHT22;11524;50.846;4.326;2022-11-25T03:04:07;17.80;62.00
22714;DHT22;11524;50.846;4.326;2022-11-25T03:06:33;17.80;63.40
22714;DHT22;11524;50.846;4.326;2022-11-25T03:08:58;17.80;62.20
22714;DHT22;11524;50.846;4.326;2022-11-25T03:11:24;17.90;62.50
22714;DHT22;11524;50.846;4.326;2022-11-25T03:14:10;17.90;62.20
22714;DHT22;11524;50.846;4.326;2022-11-25T03:16:36;17.90;62.60
22714;DHT22;11524;50.846;4.326;2022-11-25T03:19:02;17.80;62.30
22714;DHT22;11524;50.846;4.326;2022-11-25T03:21:28;17.80;62.40
22714;DHT22;11524;50.846;4.326;2022-11-25T03:23:53;17.80;62.40
22714;DHT22;11524;50.846;4.326;2022-11-25T03:26:19;17.80;62.40
22714;DHT22;11524;50.846;4.326;2022-11-25T03:28:44;17.80;62.40
22714;DHT22;11524;50.846;4.326;2022-11-25T03:31:10;17.80;62.50
22714;DHT22;11524;50.846;4.326;2022-11-25T03:33:36;17.80;62.50
22714;DHT22;11524;50.846;4.326;2022-11-25T03:36:02;17.80;62.50
22714;DHT22;11524;50.846;4.326;2022-11-25T03:38:27;17.80;62.60
22714;DHT22;11524;50.846;4.326;2022-11-25T03:40:53;17.70;62.50
22714;DHT22;11524;50.846;4.326;2022-11-25T03:43:18;17.80;63.50
22714;DHT22;11524;50.846;4.326;2022-11-25T03:45:47;17.70;62.70
22714;DHT22;11524;50.846;4.326;2022-11-25T03:48:14;17.70;62.50
22714;DHT22;11524;50.846;4.326;2022-11-25T03:50:39;17.70;62.50
22714;DHT22;11524;50.846;4.326;2022-11-25T03:53:06;17.70;62.60
22714;DHT22;11524;50.846;4.326;2022-11-25T03:55:32;17.80;63.30
22714;DHT22;11524;50.846;4.326;2022-11-25T03:57:57;17.70;62.20
22714;DHT22;11524;50.846;4.326;2022-11-25T04:00:23;17.70;62.60
22714;DHT22;11524;50.846;4.326;2022-11-25T04:02:49;17.70;62.60
22714;DHT22;11524;50.846;4.326;2022-11-25T04:05:14;17.70;62.40
22714;DHT22;11524;50.846;4.326;2022-11-25T04:07:40;17.70;62.80
22714;DHT22;11524;50.846;4.326;2022-11-25T04:10:06;17.60;62.60
22714;DHT22;11524;50.846;4.326;2022-11-25T04:12:32;17.60;62.50
22714;DHT22;11524;50.846;4.326;2022-11-25T04:15:16;17.70;62.70
22714;DHT22;11524;50.846;4.326;2022-11-25T04:17:43;17.60;62.40
22714;DHT22;11524;50.846;4.326;2022-11-25T04:20:09;17.60;62.50
22714;DHT22;11524;50.846;4.326;2022-11-25T04:22:35;17.60;62.60
22714;DHT22;11524;50.846;4.326;2022-11-25T04:25:01;17.60;62.70
22714;DHT22;11524;50.846;4.326;2022-11-25T04:27:26;17.70;62.60
22714;DHT22;11524;50.846;4.326;2022-11-25T04:29:52;17.60;62.40
22714;DHT22;11524;50.846;4.326;2022-11-25T04:32:17;17.70;62.20
22714;DHT22;11524;50.846;4.326;2022-11-25T04:34:43;17.60;62.00
22714;DHT22;11524;50.846;4.326;2022-11-25T04:37:09;17.60;62.10
22714;DHT22;11524;50.846;4.326;2022-11-25T04:39:35;17.60;62.00
22714;DHT22;11524;50.846;4.326;2022-11-25T04:42:00;17.60;62.50
22714;DHT22;11524;50.846;4.326;2022-11-25T04:44:44;17.60;62.40
22714;DHT22;11524;50.846;4.326;2022-11-25T04:47:10;17.50;61.10
22714;DHT22;11524;50.846;4.326;2022-11-25T04:49:35;17.50;62.20
22714;DHT22;11524;50.846;4.326;2022-11-25T04:52:02;17.50;62.40
22714;DHT22;11524;50.846;4.326;2022-11-25T04:54:27;17.50;62.40
22714;DHT22;11524;50.846;4.326;2022-11-25T04:56:53;17.50;62.40
22714;DHT22;11524;50.846;4.326;2022-11-25T04:59:18;17.50;62.40
22714;DHT22;11524;50.846;4.326;2022-11-25T05:02:02;17.50;62.40
22714;DHT22;11524;50.846;4.326;2022-11-25T05:04:28;17.50;62.10
22714;DHT22;11524;50.846;4.326;2022-11-25T05:06:54;17.50;62.20
22714;DHT22;11524;50.846;4.326;2022-11-25T05:09:19;17.50;62.60
22714;DHT22;11524;50.846;4.326;2022-11-25T05:11:45;17.50;62.40
22714;DHT22;11524;50.846;4.326;2022-11-25T05:14:10;17.50;62.30
22714;DHT22;11524;50.846;4.326;2022-11-25T05:16:36;17.40;62.30
22714;DHT22;11524;50.846;4.326;2022-11-25T05:19:01;17.50;62.40
22714;DHT22;11524;50.846;4.326;2022-11-25T05:21:27;17.50;62.50
22714;DHT22;11524;50.846;4.326;2022-11-25T05:23:53;17.50;62.40
22714;DHT22;11524;50.846;4.326;2022-11-25T05:26:19;17.50;62.70
22714;DHT22;11524;50.846;4.326;2022-11-25T05:28:45;17.50;63.00
22714;DHT22;11524;50.846;4.326;2022-11-25T05:31:11;17.50;62.60
22714;DHT22;11524;50.846;4.326;2022-11-25T05:33:36;17.50;62.70
22714;DHT22;11524;50.846;4.326;2022-11-25T05:36:03;17.50;62.70
22714;DHT22;11524;50.846;4.326;2022-11-25T05:38:29;17.50;62.60
22714;DHT22;11524;50.846;4.326;2022-11-25T05:41:03;17.50;62.60
22714;DHT22;11524;50.846;4.326;2022-11-25T05:43:29;17.50;62.20
22714;DHT22;11524;50.846;4.326;2022-11-25T05:45:54;17.50;62.20
22714;DHT22;11524;50.846;4.326;2022-11-25T05:48:20;17.50;62.20
22714;DHT22;11524;50.846;4.326;2022-11-25T05:50:45;17.50;62.40
22714;DHT22;11524;50.846;4.326;2022-11-25T05:53:11;17.50;62.40
22714;DHT22;11524;50.846;4.326;2022-11-25T05:55:38;17.50;62.00
22714;DHT22;11524;50.846;4.326;2022-11-25T05:58:04;17.50;62.30
22714;DHT22;11524;50.846;4.326;2022-11-25T06:00:31;17.50;62.20
22714;DHT22;11524;50.846;4.326;2022-11-25T06:02:56;17.50;62.30
22714;DHT22;11524;50.846;4.326;2022-11-25T06:05:23;17.50;62.40
22714;DHT22;11524;50.846;4.326;2022-11-25T06:07:48;17.50;62.40
22714;DHT22;11524;50.846;4.326;2022-11-25T06:10:16;17.60;62.60
22714;DHT22;11524;50.846;4.326;2022-11-25T06:12:42;17.50;62.40
22714;DHT22;11524;50.846;4.326;2022-11-25T06:15:08;17.50;62.60
22714;DHT22;11524;50.846;4.326;2022-11-25T06:17:34;17.50;62.50
22714;DHT22;11524;50.846;4.326;2022-11-25T06:20:00;17.50;63.00
22714;DHT22;11524;50.846;4.326;2022-11-25T06:22:25;17.40;62.60
22714;DHT22;11524;50.846;4.326;2022-11-25T06:24:51;17.50;62.40
22714;DHT22;11524;50.846;4.326;2022-11-25T06:27:17;17.40;62.90
22714;DHT22;11524;50.846;4.326;2022-11-25T06:29:42;17.40;62.40
22714;DHT22;11524;50.846;4.326;2022-11-25T06:32:08;17.40;62.20
22714;DHT22;11524;50.846;4.326;2022-11-25T06:34:34;17.40;62.20
22714;DHT22;11524;50.846;4.326;2022-11-25T06:37:00;17.40;61.80
22714;DHT22;11524;50.846;4.326;2022-11-25T06:39:26;17.50;61.80
22714;DHT22;11524;50.846;4.326;2022-11-25T06:41:51;17.50;61.60
22714;DHT22;11524;50.846;4.326;2022-11-25T06:44:17;17.40;61.30
22714;DHT22;11524;50.846;4.326;2022-11-25T06:46:43;17.50;61.60
22714;DHT22;11524;50.846;4.326;2022-11-25T06:49:09;17.40;61.40
22714;DHT22;11524;50.846;4.326;2022-11-25T06:51:34;17.50;61.60
22714;DHT22;11524;50.846;4.326;2022-11-25T06:54:00;17.50;61.50
22714;DHT22;11524;50.846;4.326;2022-11-25T06:56:27;17.70;60.00
22714;DHT22;11524;50.846;4.326;2022-11-25T06:58:54;17.80;59.40
22714;DHT22;11524;50.846;4.326;2022-11-25T07:01:24;17.90;59.10
22714;DHT22;11524;50.846;4.326;2022-11-25T07:03:53;18.10;58.80
22714;DHT22;11524;50.846;4.326;2022-11-25T07:06:20;18.20;58.70
22714;DHT22;11524;50.846;4.326;2022-11-25T07:08:46;18.20;58.60
22714;DHT22;11524;50.846;4.326;2022-11-25T07:11:24;18.30;58.20
22714;DHT22;11524;50.846;4.326;2022-11-25T07:14:08;18.30;58.00
22714;DHT22;11524;50.846;4.326;2022-11-25T07:16:35;18.40;57.80
22714;DHT22;11524;50.846;4.326;2022-11-25T07:19:01;18.40;57.70
22714;DHT22;11524;50.846;4.326;2022-11-25T07:21:28;18.40;58.20
22714;DHT22;11524;50.846;4.326;2022-11-25T07:23:56;18.50;57.50
22714;DHT22;11524;50.846;4.326;2022-11-25T07:26:25;18.50;57.40
22714;DHT22;11524;50.846;4.326;2022-11-25T07:28:52;18.50;57.40
22714;DHT22;11524;50.846;4.326;2022-11-25T07:31:19;18.50;57.90
22714;DHT22;11524;50.846;4.326;2022-11-25T07:33:46;18.50;57.20
22714;DHT22;11524;50.846;4.326;2022-11-25T07:36:13;18.60;57.80
22714;DHT22;11524;50.846;4.326;2022-11-25T07:38:39;18.70;57.30
22714;DHT22;11524;50.846;4.326;2022-11-25T07:41:10;18.60;56.80
22714;DHT22;11524;50.846;4.326;2022-11-25T07:43:36;18.60;56.70
22714;DHT22;11524;50.846;4.326;2022-11-25T07:46:16;18.60;56.50
22714;DHT22;11524;50.846;4.326;2022-11-25T07:48:42;18.60;56.60
22714;DHT22;11524;50.846;4.326;2022-11-25T07:53:40;18.70;56.70
22714;DHT22;11524;50.846;4.326;2022-11-25T07:56:06;18.60;56.60
22714;DHT22;11524;50.846;4.326;2022-11-25T07:58:32;18.60;56.50
22714;DHT22;11524;50.846;4.326;2022-11-25T08:01:04;18.70;56.60
22714;DHT22;11524;50.846;4.326;2022-11-25T08:03:34;18.70;56.40
22714;DHT22;11524;50.846;4.326;2022-11-25T08:06:02;18.60;56.40
22714;DHT22;11524;50.846;4.326;2022-11-25T08:08:28;18.70;56.40
22714;DHT22;11524;50.846;4.326;2022-11-25T08:10:53;18.70;56.50
22714;DHT22;11524;50.846;4.326;2022-11-25T08:13:19;18.70;56.10
22714;DHT22;11524;50.846;4.326;2022-11-25T08:15:45;18.70;56.40
22714;DHT22;11524;50.846;4.326;2022-11-25T08:18:10;18.70;56.20
22714;DHT22;11524;50.846;4.326;2022-11-25T08:20:36;18.70;56.10
22714;DHT22;11524;50.846;4.326;2022-11-25T08:23:02;18.80;56.20
22714;DHT22;11524;50.846;4.326;2022-11-25T08:25:27;18.70;56.20
22714;DHT22;11524;50.846;4.326;2022-11-25T08:27:54;18.70;57.20
22714;DHT22;11524;50.846;4.326;2022-11-25T08:30:20;18.80;56.10
22714;DHT22;11524;50.846;4.326;2022-11-25T08:32:48;18.70;55.90
22714;DHT22;11524;50.846;4.326;2022-11-25T08:35:14;18.80;56.00
22714;DHT22;11524;50.846;4.326;2022-11-25T08:37:40;18.80;55.80
22714;DHT22;11524;50.846;4.326;2022-11-25T08:40:06;18.70;56.00
22714;DHT22;11524;50.846;4.326;2022-11-25T08:42:31;18.70;55.80
22714;DHT22;11524;50.846;4.326;2022-11-25T08:44:58;18.80;55.80
22714;DHT22;11524;50.846;4.326;2022-11-25T08:47:24;18.80;55.80
22714;DHT22;11524;50.846;4.326;2022-11-25T08:49:53;18.80;55.80
22714;DHT22;11524;50.846;4.326;2022-11-25T08:52:20;18.80;55.70
22714;DHT22;11524;50.846;4.326;2022-11-25T08:54:46;18.80;55.70
22714;DHT22;11524;50.846;4.326;2022-11-25T08:57:12;18.80;55.70
22714;DHT22;11524;50.846;4.326;2022-11-25T08:59:38;18.70;55.70
22714;DHT22;11524;50.846;4.326;2022-11-25T09:02:06;18.80;55.80
22714;DHT22;11524;50.846;4.326;2022-11-25T09:04:32;18.80;55.80
22714;DHT22;11524;50.846;4.326;2022-11-25T09:06:58;18.80;56.00
22714;DHT22;11524;50.846;4.326;2022-11-25T09:09:25;18.80;55.80
22714;DHT22;11524;50.846;4.326;2022-11-25T09:11:51;18.80;55.80
22714;DHT22;11524;50.846;4.326;2022-11-25T09:14:16;18.80;55.70
22714;DHT22;11524;50.846;4.326;2022-11-25T09:16:42;18.80;55.70
22714;DHT22;11524;50.846;4.326;2022-11-25T09:19:07;18.90;55.80
22714;DHT22;11524;50.846;4.326;2022-11-25T09:21:33;18.80;55.60
22714;DHT22;11524;50.846;4.326;2022-11-25T09:23:59;18.80;55.70
22714;DHT22;11524;50.846;4.326;2022-11-25T09:26:30;18.80;55.70
22714;DHT22;11524;50.846;4.326;2022-11-25T09:29:00;18.80;55.50
22714;DHT22;11524;50.846;4.326;2022-11-25T09:31:25;18.80;55.50
22714;DHT22;11524;50.846;4.326;2022-11-25T09:33:51;18.80;55.60
22714;DHT22;11524;50.846;4.326;2022-11-25T09:36:18;18.80;55.80
22714;DHT22;11524;50.846;4.326;2022-11-25T09:38:44;18.80;55.70
22714;DHT22;11524;50.846;4.326;2022-11-25T09:41:39;18.80;55.60
22714;DHT22;11524;50.846;4.326;2022-11-25T09:47:40;18.80;55.50
22714;DHT22;11524;50.846;4.326;2022-11-25T09:53:50;18.80;55.70
22714;DHT22;11524;50.846;4.326;2022-11-25T09:56:17;18.80;55.70
22714;DHT22;11524;50.846;4.326;2022-11-25T09:58:58;18.80;55.40
22714;DHT22;11524;50.846;4.326;2022-11-25T10:01:26;18.80;55.60
22714;DHT22;11524;50.846;4.326;2022-11-25T10:03:57;18.80;55.80
22714;DHT22;11524;50.846;4.326;2022-11-25T10:06:36;18.80;55.80
22714;DHT22;11524;50.846;4.326;2022-11-25T10:09:14;18.80;56.20
22714;DHT22;11524;50.846;4.326;2022-11-25T10:11:50;18.60;56.60
22714;DHT22;11524;50.846;4.326;2022-11-25T10:14:49;18.50;56.70
22714;DHT22;11524;50.846;4.326;2022-11-25T10:17:35;18.50;56.80
22714;DHT22;11524;50.846;4.326;2022-11-25T10:22:54;18.50;57.10
22714;DHT22;11524;50.846;4.326;2022-11-25T10:25:47;18.50;57.10
22714;DHT22;11524;50.846;4.326;2022-11-25T10:28:21;18.50;57.20
22714;DHT22;11524;50.846;4.326;2022-11-25T10:33:33;18.50;57.30
22714;DHT22;11524;50.846;4.326;2022-11-25T10:36:11;18.50;57.50
22714;DHT22;11524;50.846;4.326;2022-11-25T10:39:04;18.50;57.50
22714;DHT22;11524;50.846;4.326;2022-11-25T10:41:32;18.50;57.60
22714;DHT22;11524;50.846;4.326;2022-11-25T10:43:57;18.50;57.30
22714;DHT22;11524;50.846;4.326;2022-11-25T10:48:58;18.50;57.30
22714;DHT22;11524;50.846;4.326;2022-11-25T10:51:47;18.50;57.40
22714;DHT22;11524;50.846;4.326;2022-11-25T10:54:25;18.50;57.20
22714;DHT22;11524;50.846;4.326;2022-11-25T10:56:54;18.50;57.40
22714;DHT22;11524;50.846;4.326;2022-11-25T10:59:31;18.50;58.00
22714;DHT22;11524;50.846;4.326;2022-11-25T11:02:26;18.60;57.50
22714;DHT22;11524;50.846;4.326;2022-11-25T11:05:03;18.60;57.10
22714;DHT22;11524;50.846;4.326;2022-11-25T11:07:44;18.70;56.80
22714;DHT22;11524;50.846;4.326;2022-11-25T11:15:20;18.70;57.00
22714;DHT22;11524;50.846;4.326;2022-11-25T11:17:46;18.80;57.30
22714;DHT22;11524;50.846;4.326;2022-11-25T11:20:24;18.80;57.30
22714;DHT22;11524;50.846;4.326;2022-11-25T11:23:02;18.80;57.30
22714;DHT22;11524;50.846;4.326;2022-11-25T11:25:34;18.90;57.20
22714;DHT22;11524;50.846;4.326;2022-11-25T11:28:01;18.90;57.10
22714;DHT22;11524;50.846;4.326;2022-11-25T11:30:30;18.90;57.50
22714;DHT22;11524;50.846;4.326;2022-11-25T11:40:48;18.90;56.60
22714;DHT22;11524;50.846;4.326;2022-11-25T11:54:19;18.90;56.80
22714;DHT22;11524;50.846;4.326;2022-11-25T11:56:59;18.90;56.90
22714;DHT22;11524;50.846;4.326;2022-11-25T12:07:46;19.00;56.70
22714;DHT22;11524;50.846;4.326;2022-11-25T12:15:57;19.10;56.80
22714;DHT22;11524;50.846;4.326;2022-11-25T12:23:57;19.00;57.00
22714;DHT22;11524;50.846;4.326;2022-11-25T12:27:17;19.10;57.00
22714;DHT22;11524;50.846;4.326;2022-11-25T12:37:49;19.10;57.10
22714;DHT22;11524;50.846;4.326;2022-11-25T12:40:45;19.00;57.30
22714;DHT22;11524;50.846;4.326;2022-11-25T12:43:20;19.00;57.10
22714;DHT22;11524;50.846;4.326;2022-11-25T12:45:54;19.00;57.20
22714;DHT22;11524;50.846;4.326;2022-11-25T12:48:23;19.10;57.30
22714;DHT22;11524;50.846;4.326;2022-11-25T12:51:45;19.00;57.20
22714;DHT22;11524;50.846;4.326;2022-11-25T13:02:52;19.10;57.40
22714;DHT22;11524;50.846;4.326;2022-11-25T13:14:20;19.00;57.50
22714;DHT22;11524;50.846;4.326;2022-11-25T13:16:49;19.10;57.70
22714;DHT22;11524;50.846;4.326;2022-11-25T13:19:19;19.10;57.70
22714;DHT22;11524;50.846;4.326;2022-11-25T13:22:01;19.10;58.40
22714;DHT22;11524;50.846;4.326;2022-11-25T13:24:29;19.10;57.70
22714;DHT22;11524;50.846;4.326;2022-11-25T13:26:55;19.10;56.20
22714;DHT22;11524;50.846;4.326;2022-11-25T13:34:28;19.00;57.90
22714;DHT22;11524;50.846;4.326;2022-11-25T13:36:59;19.00;57.60
22714;DHT22;11524;50.846;4.326;2022-11-25T13:39:35;19.00;57.80
22714;DHT22;11524;50.846;4.326;2022-11-25T13:42:18;19.00;57.70
22714;DHT22;11524;50.846;4.326;2022-11-25T13:44:55;19.10;57.90
22714;DHT22;11524;50.846;4.326;2022-11-25T13:47:43;19.10;56.20
22714;DHT22;11524;50.846;4.326;2022-11-25T13:57:46;19.00;57.90
22714;DHT22;11524;50.846;4.326;2022-11-25T14:02:46;19.00;58.20
22714;DHT22;11524;50.846;4.326;2022-11-25T14:13:25;19.00;58.20
22714;DHT22;11524;50.846;4.326;2022-11-25T14:21:53;19.00;58.20
22714;DHT22;11524;50.846;4.326;2022-11-25T14:24:42;19.00;58.40
22714;DHT22;11524;50.846;4.326;2022-11-25T14:27:18;19.00;58.20
22714;DHT22;11524;50.846;4.326;2022-11-25T14:29:59;19.00;58.10
22714;DHT22;11524;50.846;4.326;2022-11-25T14:32:58;18.90;58.40
22714;DHT22;11524;50.846;4.326;2022-11-25T14:35:27;18.90;58.40
22714;DHT22;11524;50.846;4.326;2022-11-25T14:37:59;18.90;58.40
22714;DHT22;11524;50.846;4.326;2022-11-25T14:40:46;19.00;58.50
22714;DHT22;11524;50.846;4.326;2022-11-25T14:43:23;18.90;58.20
22714;DHT22;11524;50.846;4.326;2022-11-25T14:48:35;19.00;58.20
22714;DHT22;11524;50.846;4.326;2022-11-25T14:51:04;19.00;58.20
22714;DHT22;11524;50.846;4.326;2022-11-25T14:53:42;19.00;58.40
22714;DHT22;11524;50.846;4.326;2022-11-25T14:56:09;19.00;58.30
22714;DHT22;11524;50.846;4.326;2022-11-25T14:58:48;19.00;58.30
22714;DHT22;11524;50.846;4.326;2022-11-25T15:01:29;18.90;58.20
22714;DHT22;11524;50.846;4.326;2022-11-25T15:04:02;19.00;58.10
22714;DHT22;11524;50.846;4.326;2022-11-25T15:06:36;18.90;58.40
22714;DHT22;11524;50.846;4.326;2022-11-25T15:09:10;19.00;58.20
22714;DHT22;11524;50.846;4.326;2022-11-25T15:11:41;18.90;58.20
22714;DHT22;11524;50.846;4.326;2022-11-25T15:14:16;18.90;58.20
22714;DHT22;11524;50.846;4.326;2022-11-25T15:16:47;18.90;58.20
22714;DHT22;11524;50.846;4.326;2022-11-25T15:19:19;18.90;58.40
22714;DHT22;11524;50.846;4.326;2022-11-25T15:22:00;18.90;58.40
22714;DHT22;11524;50.846;4.326;2022-11-25T15:24:30;18.90;58.40
22714;DHT22;11524;50.846;4.326;2022-11-25T15:26:59;19.00;58.20
22714;DHT22;11524;50.846;4.326;2022-11-25T15:29:26;18.90;58.00
22714;DHT22;11524;50.846;4.326;2022-11-25T15:31:53;18.90;58.20
22714;DHT22;11524;50.846;4.326;2022-11-25T15:34:21;18.90;58.40
22714;DHT22;11524;50.846;4.326;2022-11-25T15:36:47;18.90;58.70
22714;DHT22;11524;50.846;4.326;2022-11-25T15:41:49;18.90;58.50
22714;DHT22;11524;50.846;4.326;2022-11-25T15:44:28;18.90;58.70
22714;DHT22;11524;50.846;4.326;2022-11-25T15:47:03;18.90;58.70
22714;DHT22;11524;50.846;4.326;2022-11-25T15:49:31;18.90;58.50
22714;DHT22;11524;50.846;4.326;2022-11-25T15:52:03;18.90;58.20
22714;DHT22;11524;50.846;4.326;2022-11-25T15:54:36;18.80;58.80
22714;DHT22;11524;50.846;4.326;2022-11-25T15:57:16;18.80;58.90
22714;DHT22;11524;50.846;4.326;2022-11-25T16:10:53;18.80;58.60
22714;DHT22;11524;50.846;4.326;2022-11-25T16:24:27;18.80;58.20
22714;DHT22;11524;50.846;4.326;2022-11-25T16:29:36;18.80;58.10
22714;DHT22;11524;50.846;4.326;2022-11-25T16:32:13;18.70;58.50
22714;DHT22;11524;50.846;4.326;2022-11-25T16:34:40;18.70;58.30
22714;DHT22;11524;50.846;4.326;2022-11-25T16:37:05;18.70;58.50
22714;DHT22;11524;50.846;4.326;2022-11-25T16:39:31;18.70;58.20
22714;DHT22;11524;50.846;4.326;2022-11-25T16:41:58;18.70;58.30
22714;DHT22;11524;50.846;4.326;2022-11-25T16:44:27;18.70;58.30
22714;DHT22;11524;50.846;4.326;2022-11-25T16:46:54;18.70;58.50
22714;DHT22;11524;50.846;4.326;2022-11-25T16:49:20;18.80;58.30
22714;DHT22;11524;50.846;4.326;2022-11-25T16:51:47;18.70;58.30
22714;DHT22;11524;50.846;4.326;2022-11-25T16:54:16;18.70;58.20
22714;DHT22;11524;50.846;4.326;2022-11-25T16:56:42;18.70;58.10
22714;DHT22;11524;50.846;4.326;2022-11-25T16:59:34;18.70;58.40
22714;DHT22;11524;50.846;4.326;2022-11-25T17:01:59;18.60;57.40
22714;DHT22;11524;50.846;4.326;2022-11-25T17:04:25;18.60;57.40
22714;DHT22;11524;50.846;4.326;2022-11-25T17:06:51;18.60;58.30
22714;DHT22;11524;50.846;4.326;2022-11-25T17:09:16;18.60;57.80
22714;DHT22;11524;50.846;4.326;2022-11-25T17:11:48;18.50;57.70
22714;DHT22;11524;50.846;4.326;2022-11-25T17:14:30;18.50;57.40
22714;DHT22;11524;50.846;4.326;2022-11-25T17:16:57;18.50;57.40
22714;DHT22;11524;50.846;4.326;2022-11-25T17:19:23;18.60;57.90
22714;DHT22;11524;50.846;4.326;2022-11-25T17:21:49;18.50;58.40
22714;DHT22;11524;50.846;4.326;2022-11-25T17:24:22;18.50;58.40
22714;DHT22;11524;50.846;4.326;2022-11-25T17:26:58;18.50;58.40
22714;DHT22;11524;50.846;4.326;2022-11-25T17:29:31;18.60;56.70
22714;DHT22;11524;50.846;4.326;2022-11-25T17:31:58;18.50;58.20
22714;DHT22;11524;50.846;4.326;2022-11-25T17:34:24;18.50;58.20
22714;DHT22;11524;50.846;4.326;2022-11-25T17:36:50;18.50;58.30
22714;DHT22;11524;50.846;4.326;2022-11-25T17:39:16;18.50;58.40
22714;DHT22;11524;50.846;4.326;2022-11-25T17:41:45;18.50;58.50
22714;DHT22;11524;50.846;4.326;2022-11-25T17:44:38;18.50;58.30
22714;DHT22;11524;50.846;4.326;2022-11-25T17:47:12;18.50;58.20
22714;DHT22;11524;50.846;4.326;2022-11-25T17:49:37;18.50;58.30
22714;DHT22;11524;50.846;4.326;2022-11-25T17:52:03;18.50;56.70
22714;DHT22;11524;50.846;4.326;2022-11-25T17:54:29;18.60;58.30
22714;DHT22;11524;50.846;4.326;2022-11-25T17:56:55;18.50;58.60
22714;DHT22;11524;50.846;4.326;2022-11-25T17:59:27;18.50;58.50
22714;DHT22;11524;50.846;4.326;2022-11-25T18:01:54;18.50;58.30
22714;DHT22;11524;50.846;4.326;2022-11-25T18:04:28;18.50;58.50
22714;DHT22;11524;50.846;4.326;2022-11-25T18:06:54;18.50;58.30
22714;DHT22;11524;50.846;4.326;2022-11-25T18:09:20;18.50;58.10
22714;DHT22;11524;50.846;4.326;2022-11-25T18:11:49;18.50;58.40
22714;DHT22;11524;50.846;4.326;2022-11-25T18:14:35;18.50;58.30
22714;DHT22;11524;50.846;4.326;2022-11-25T18:17:04;18.50;57.90